Time;durP1;ratioP1;P1;durP2;ratioP2;P2;SDS_P1;SDS_P2;PMS_P1;PMS_P2;Temp;Humidity;BMP_temperature;BMP_pressure;BME280_temperature;BME280_humidity;BME280_pressure;Samples;Min_cycle;Max_cycle;Signal;HPM_P1;HPM_P2
2021/10/01 00:01:29;;;;;;;17.82;11.80;;;;;;;5.20;66.86;102055.88;1631295;86;20961;-80
2021/10/01 00:03:56;;;;;;;17.12;10.95;;;;;;;5.17;66.88;102054.55;1645448;86;20962;-80
2021/10/01 00:06:22;;;;;;;17.37;10.90;;;;;;;5.15;66.92;102051.48;1634453;86;20925;-80
2021/10/01 00:08:48;;;;;;;17.23;10.88;;;;;;;5.13;66.98;102052.72;1626200;86;20927;-80
2021/10/01 00:11:15;;;;;;;16.73;11.57;;;;;;;5.12;67.02;102053.95;1599747;88;20966;-80
2021/10/01 00:13:42;;;;;;;16.90;11.65;;;;;;;5.11;67.04;102047.95;1635111;86;21033;-80
2021/10/01 00:16:09;;;;;;;18.20;12.78;;;;;;;5.11;67.07;102054.78;1628487;87;20981;-80
2021/10/01 00:18:37;;;;;;;24.87;13.90;;;;;;;5.11;67.18;102049.65;1575587;89;20957;-80
2021/10/01 00:21:03;;;;;;;20.30;14.35;;;;;;;5.10;67.21;102044.06;1614461;87;21122;-80
2021/10/01 00:23:30;;;;;;;19.98;13.08;;;;;;;5.12;67.32;102047.13;1630810;87;36798;-80
2021/10/01 00:25:57;;;;;;;19.57;13.45;;;;;;;5.15;67.32;102045.94;1624345;86;20953;-80
2021/10/01 00:28:23;;;;;;;21.85;13.80;;;;;;;5.18;67.33;102043.87;1629588;86;20967;-80
2021/10/01 00:30:49;;;;;;;21.23;14.30;;;;;;;5.18;67.37;102037.05;1621262;86;20974;-80
2021/10/01 00:33:15;;;;;;;19.48;13.25;;;;;;;5.19;67.41;102043.92;1666425;85;20932;-80
2021/10/01 00:35:41;;;;;;;19.95;14.38;;;;;;;5.21;67.42;102046.50;1643647;85;20932;-80
2021/10/01 00:38:08;;;;;;;23.22;15.20;;;;;;;5.21;67.43;102042.65;1613034;87;21261;-80
2021/10/01 00:40:34;;;;;;;20.65;13.38;;;;;;;5.21;67.46;102044.80;1624778;86;21024;-80
2021/10/01 00:43:00;;;;;;;21.93;14.20;;;;;;;5.22;67.49;102039.26;1619561;88;21170;-80
2021/10/01 00:45:26;;;;;;;17.42;13.43;;;;;;;5.21;67.50;102041.37;1628094;86;21089;-80
2021/10/01 00:47:52;;;;;;;21.00;14.73;;;;;;;5.22;67.53;102044.39;1624072;87;21437;-80
2021/10/01 00:50:18;;;;;;;21.97;14.18;;;;;;;5.21;67.55;102038.80;1619047;86;21304;-80
2021/10/01 00:52:46;;;;;;;22.17;15.63;;;;;;;5.20;67.56;102033.25;1655366;85;20968;-80
2021/10/01 00:55:12;;;;;;;25.08;16.87;;;;;;;5.20;67.64;102034.53;1648311;85;21075;-80
2021/10/01 00:57:39;;;;;;;22.30;15.80;;;;;;;5.20;67.65;102039.22;1619861;88;21050;-80
2021/10/01 01:00:10;;;;;;;23.20;17.30;;;;;;;5.19;67.64;102034.08;1654984;86;21086;-80
2021/10/01 01:02:36;;;;;;;24.37;16.23;;;;;;;5.16;67.69;102033.58;1654582;85;21793;-80
2021/10/01 01:05:04;;;;;;;23.30;17.52;;;;;;;5.14;67.68;102035.23;1645988;85;20976;-80
2021/10/01 01:07:54;;;;;;;24.32;17.62;;;;;;;5.13;67.74;102033.48;1652720;86;20920;-80
2021/10/01 01:10:45;;;;;;;26.73;17.80;;;;;;;5.12;67.71;102032.16;1648852;86;20956;-80
2021/10/01 01:13:26;;;;;;;20.62;15.18;;;;;;;5.08;67.75;102028.64;1648293;86;20912;-80
2021/10/01 01:16:00;;;;;;;22.35;15.58;;;;;;;5.03;67.76;102028.05;1656530;86;20939;-80
2021/10/01 01:18:44;;;;;;;28.35;19.48;;;;;;;5.01;67.82;102028.00;1652668;85;20940;-80
2021/10/01 01:21:41;;;;;;;30.08;18.82;;;;;;;4.98;67.79;102021.50;1649391;86;20893;-80
2021/10/01 01:24:31;;;;;;;21.65;16.17;;;;;;;4.94;67.85;102024.80;1651055;85;20972;-80
2021/10/01 01:27:15;;;;;;;26.80;19.07;;;;;;;4.91;67.87;102033.67;1652384;85;20987;-80
2021/10/01 01:30:02;;;;;;;;;;;;;;;4.87;67.91;102029.28;1637073;86;212367;-80
2021/10/01 01:32:32;;;;;;;23.83;18.05;;;;;;;4.83;68.16;102024.89;1616650;86;20109;-80
2021/10/01 01:35:05;;;;;;;28.10;20.50;;;;;;;4.78;67.93;102023.88;1624575;86;20904;-80
2021/10/01 01:37:48;;;;;;;27.87;20.32;;;;;;;4.78;68.00;102023.88;1654370;86;21405;-80
2021/10/01 01:40:17;;;;;;;28.17;19.50;;;;;;;4.76;68.00;102020.40;1644670;86;20992;-80
2021/10/01 01:42:45;;;;;;;34.18;21.15;;;;;;;4.72;68.02;102022.41;1651959;85;20992;-80
2021/10/01 01:45:14;;;;;;;29.02;21.70;;;;;;;4.71;68.11;102021.55;1654581;86;20980;-80
2021/10/01 01:47:44;;;;;;;34.45;22.77;;;;;;;4.71;68.07;102016.42;1642981;86;20936;-80
2021/10/01 01:50:12;;;;;;;42.15;27.95;;;;;;;4.72;68.13;102009.60;1649117;86;20896;-80
2021/10/01 01:52:41;;;;;;;36.05;24.20;;;;;;;4.71;68.19;102016.42;1618919;87;20916;-80
2021/10/01 01:55:11;;;;;;;37.93;25.48;;;;;;;4.71;68.18;102013.86;1645709;86;20936;-80
2021/10/01 01:57:39;;;;;;;31.02;24.52;;;;;;;4.71;68.22;102016.83;1650821;86;20936;-80
2021/10/01 02:00:07;;;;;;;37.00;25.92;;;;;;;4.70;68.26;102017.24;1613523;88;20935;-80
2021/10/01 02:02:34;;;;;;;32.23;24.12;;;;;;;4.71;68.34;102020.27;1651177;85;20952;-79
2021/10/01 02:05:03;;;;;;;34.15;23.98;;;;;;;4.71;68.32;102023.23;1615776;87;20983;-79
2021/10/01 02:07:31;;;;;;;32.38;22.80;;;;;;;4.70;68.34;102015.96;1656464;85;21495;-79
2021/10/01 02:10:03;;;;;;;35.00;22.73;;;;;;;4.69;68.37;102018.48;1641307;85;20984;-79
2021/10/01 02:12:30;;;;;;;34.23;24.15;;;;;;;4.68;68.37;102019.33;1624825;88;20960;-79
2021/10/01 02:14:58;;;;;;;28.57;20.15;;;;;;;4.65;68.38;102022.67;1654421;86;21949;-79
2021/10/01 02:17:33;;;;;;;25.70;18.75;;;;;;;4.63;68.45;102021.34;1619683;88;20944;-79
2021/10/01 02:20:05;;;;;;;21.57;17.50;;;;;;;4.62;68.40;102023.86;1621893;87;20981;-79
2021/10/01 02:22:33;;;;;;;23.75;17.52;;;;;;;4.58;68.41;102015.20;1639958;86;20933;-79
2021/10/01 02:24:59;;;;;;;29.35;18.50;;;;;;;4.56;68.49;102019.83;1639175;85;20971;-79
2021/10/01 02:27:40;;;;;;;27.70;18.93;;;;;;;4.55;68.48;102015.52;1619947;88;21028;-79
2021/10/01 02:30:18;;;;;;;28.40;19.05;;;;;;;4.52;68.50;102021.42;1624828;86;20956;-79
2021/10/01 02:32:52;;;;;;;22.73;17.73;;;;;;;4.47;68.54;102019.53;1583249;88;20980;-79
2021/10/01 02:35:21;;;;;;;22.25;17.27;;;;;;;4.43;68.52;102016.42;1631110;86;20924;-79
2021/10/01 02:37:47;;;;;;;23.77;18.90;;;;;;;4.32;68.58;102004.14;1638180;86;21061;-79
2021/10/01 02:40:13;;;;;;;24.20;18.87;;;;;;;4.37;68.58;102014.53;1623535;87;21150;-79
2021/10/01 02:42:39;;;;;;;27.42;18.92;;;;;;;4.33;68.61;102010.13;1630569;87;20892;-79
2021/10/01 02:45:08;;;;;;;25.12;19.40;;;;;;;4.29;68.64;102010.86;1624764;87;21420;-79
2021/10/01 02:47:35;;;;;;;25.25;18.73;;;;;;;4.28;68.62;102009.12;1593018;89;20965;-79
2021/10/01 02:50:07;;;;;;;24.32;18.75;;;;;;;4.25;68.69;102004.77;1586622;88;20983;-79
2021/10/01 02:52:59;;;;;;;31.37;19.20;;;;;;;4.24;68.70;102003.44;1595999;88;20948;-79
2021/10/01 02:55:46;;;;;;;28.50;18.80;;;;;;;4.23;68.74;102000.42;1568225;89;21023;-79
2021/10/01 02:58:38;;;;;;;28.10;19.52;;;;;;;4.22;68.70;101998.68;1564584;89;21006;-79
2021/10/01 03:01:09;;;;;;;28.67;18.77;;;;;;;4.18;68.73;101998.98;1567757;89;21029;-79
2021/10/01 03:03:48;;;;;;;29.92;19.02;;;;;;;4.15;68.77;101996.36;1585023;89;20955;-79
2021/10/01 03:06:19;;;;;;;22.77;16.32;;;;;;;4.13;68.78;101990.73;1602495;88;20958;-79
2021/10/01 03:08:45;;;;;;;23.18;17.27;;;;;;;4.12;68.80;101997.95;1563297;89;21046;-79
2021/10/01 03:11:13;;;;;;;20.17;14.38;;;;;;;4.10;68.85;101990.64;1569806;89;21914;-79
2021/10/01 03:13:49;;;;;;;25.97;15.35;;;;;;;4.10;68.95;101992.78;1575615;89;20951;-79
2021/10/01 03:16:17;;;;;;;20.08;15.50;;;;;;;4.12;68.97;101997.55;1598549;88;21384;-79
2021/10/01 03:18:54;;;;;;;21.62;14.55;;;;;;;4.11;68.96;101995.80;1597146;88;20961;-79
2021/10/01 03:21:23;;;;;;;20.82;13.93;;;;;;;4.09;68.98;101997.45;1553072;89;20964;-79
2021/10/01 03:23:52;;;;;;;25.48;16.07;;;;;;;4.11;69.07;101995.80;1528758;88;5000731;-79
2021/10/01 03:26:19;;;;;;;20.68;14.93;;;;;;;4.12;69.05;101997.55;1584858;88;20989;-79
2021/10/01 03:28:46;;;;;;;25.25;14.87;;;;;;;4.13;69.02;102001.84;1573725;89;20996;-79
2021/10/01 03:31:13;;;;;;;21.87;14.05;;;;;;;4.13;69.07;101995.45;1615093;86;20987;-79
2021/10/01 03:33:39;;;;;;;18.87;14.10;;;;;;;4.14;69.05;101996.31;1650559;86;20932;-79
2021/10/01 03:36:07;;;;;;;20.48;13.18;;;;;;;4.11;69.06;101995.80;1656930;86;20980;-79
2021/10/01 03:38:39;;;;;;;17.80;12.15;;;;;;;4.10;69.11;101992.78;1634868;86;21471;-79
2021/10/01 03:41:05;;;;;;;22.30;13.88;;;;;;;4.08;69.11;101996.98;1647162;86;20986;-79
2021/10/01 03:43:32;;;;;;;22.90;13.15;;;;;;;4.09;69.17;101996.16;1609712;88;20915;-79
2021/10/01 03:45:58;;;;;;;;;;;;;;;4.13;69.21;101995.85;1659193;86;20951;-79
2021/10/01 03:48:25;;;;;;;15.40;11.43;;;;;;;4.10;69.31;101993.20;1655605;85;20217;-79
2021/10/01 03:50:53;;;;;;;21.02;12.15;;;;;;;4.05;69.12;101994.73;1620569;87;20967;-79
2021/10/01 03:53:20;;;;;;;16.40;11.83;;;;;;;4.05;69.16;101996.02;1630200;86;20904;-79
2021/10/01 03:55:46;;;;;;;16.90;11.83;;;;;;;4.02;69.19;101992.08;1617911;87;21409;-79
2021/10/01 03:58:19;;;;;;;22.15;12.13;;;;;;;3.99;69.21;101989.00;1628754;86;20984;-79
2021/10/01 04:00:45;;;;;;;17.73;11.55;;;;;;;3.97;69.19;101992.80;1644948;86;20996;-79
2021/10/01 04:03:13;;;;;;;22.53;11.40;;;;;;;3.95;69.25;101988.03;1655474;85;20901;-79
2021/10/01 04:05:40;;;;;;;18.10;11.63;;;;;;;3.94;69.31;101985.02;1662357;85;20916;-79
2021/10/01 04:08:11;;;;;;;16.00;11.45;;;;;;;3.92;69.27;101982.81;1663505;85;20963;-79
2021/10/01 04:10:38;;;;;;;17.10;10.90;;;;;;;3.89;69.32;101986.55;1660840;85;21361;-78
2021/10/01 04:13:07;;;;;;;13.60;10.03;;;;;;;3.88;69.34;101986.50;1625690;86;20935;-79
2021/10/01 04:15:34;;;;;;;15.28;10.80;;;;;;;3.89;69.43;101989.11;1661021;85;20927;-79
2021/10/01 04:18:01;;;;;;;18.27;11.53;;;;;;;3.92;69.47;101980.66;1628104;86;21538;-79
2021/10/01 04:20:27;;;;;;;13.50;10.40;;;;;;;3.94;69.48;101982.45;1604572;88;20963;-79
2021/10/01 04:22:53;;;;;;;14.07;10.43;;;;;;;3.94;69.40;101979.02;1657423;85;20952;-79
2021/10/01 04:25:19;;;;;;;17.37;10.18;;;;;;;3.90;69.36;101979.74;1652987;85;20963;-79
2021/10/01 04:27:46;;;;;;;15.55;9.53;;;;;;;3.87;69.51;101979.23;1647983;85;20908;-79
2021/10/01 04:30:12;;;;;;;20.23;9.73;;;;;;;3.87;69.54;101979.23;1657913;85;20951;-79
2021/10/01 04:32:44;;;;;;;12.23;8.93;;;;;;;3.86;69.56;101979.19;1637553;86;20969;-79
2021/10/01 04:35:09;;;;;;;15.80;9.00;;;;;;;3.87;69.63;101979.64;1625809;86;21001;-80
2021/10/01 04:37:34;;;;;;;11.97;9.35;;;;;;;3.87;69.57;101983.48;1636441;86;20996;-80
2021/10/01 04:40:00;;;;;;;13.80;9.43;;;;;;;3.88;69.64;101976.27;1605893;88;20984;-80
2021/10/01 04:42:26;;;;;;;13.22;9.65;;;;;;;3.88;69.68;101973.30;1631750;86;20941;-80
2021/10/01 04:44:59;;;;;;;13.25;9.05;;;;;;;3.89;69.70;101969.92;1634758;86;20965;-80
2021/10/01 04:47:25;;;;;;;13.23;10.13;;;;;;;3.89;69.69;101975.03;1634759;86;20969;-80
2021/10/01 04:49:51;;;;;;;14.87;9.38;;;;;;;3.89;69.77;101972.48;1635286;86;21088;-79
2021/10/01 04:52:17;;;;;;;11.77;9.37;;;;;;;3.89;69.70;101976.31;1643235;86;20912;-79
2021/10/01 04:54:43;;;;;;;13.22;10.18;;;;;;;3.89;69.78;101972.48;1632490;86;21037;-79
2021/10/01 04:57:15;;;;;;;16.75;9.65;;;;;;;3.89;69.76;101975.03;1630555;86;21041;-79
2021/10/01 04:59:41;;;;;;;15.58;9.08;;;;;;;3.89;69.73;101969.92;1622784;86;21221;-79
2021/10/01 05:02:07;;;;;;;13.60;8.97;;;;;;;3.87;69.78;101971.55;1635746;86;20923;-78
2021/10/01 05:04:33;;;;;;;15.37;9.60;;;;;;;3.85;69.78;101966.80;1630667;86;21089;-79
2021/10/01 05:06:59;;;;;;;12.33;8.78;;;;;;;3.84;69.83;101970.17;1639901;86;21072;-78
2021/10/01 05:09:27;;;;;;;13.48;9.40;;;;;;;3.83;69.85;101973.55;1597241;88;21099;-78
2021/10/01 05:11:53;;;;;;;10.32;8.60;;;;;;;3.82;69.86;101974.38;1632561;86;21127;-78
2021/10/01 05:14:19;;;;;;;13.80;8.63;;;;;;;3.82;69.93;101970.94;1626400;86;20918;-78
2021/10/01 05:16:50;;;;;;;15.20;8.30;;;;;;;3.85;69.95;101969.77;1587415;88;21080;-79
2021/10/01 05:19:16;;;;;;;14.93;8.90;;;;;;;3.87;69.96;101970.69;1629431;86;20909;-79
2021/10/01 05:21:43;;;;;;;15.63;9.53;;;;;;;3.89;70.00;101971.20;1635588;86;21136;-79
2021/10/01 05:24:12;;;;;;;20.00;8.65;;;;;;;3.93;70.04;101973.04;1620757;87;21302;-78
2021/10/01 05:26:37;;;;;;;11.20;8.35;;;;;;;3.95;70.08;101975.64;1642375;86;21430;-78
2021/10/01 05:29:03;;;;;;;13.77;9.37;;;;;;;3.98;70.09;101967.66;1636633;86;20898;-78
2021/10/01 05:31:29;;;;;;;17.77;9.13;;;;;;;4.01;70.12;101972.42;1636933;86;20962;-78
2021/10/01 05:33:55;;;;;;;18.10;10.25;;;;;;;4.05;70.18;101976.82;1636002;86;20960;-78
2021/10/01 05:36:28;;;;;;;16.05;9.90;;;;;;;4.06;70.22;101975.59;1640069;86;20909;-78
2021/10/01 05:38:54;;;;;;;17.05;9.15;;;;;;;4.09;70.24;101976.09;1629741;86;20930;-78
2021/10/01 05:41:20;;;;;;;11.57;9.07;;;;;;;4.13;70.36;101980.09;1630604;86;20905;-78
2021/10/01 05:43:46;;;;;;;13.48;8.93;;;;;;;4.20;70.39;101980.71;1635167;86;21560;-78
2021/10/01 05:46:13;;;;;;;10.53;8.88;;;;;;;4.27;70.46;101981.36;1629521;86;20932;-78
2021/10/01 05:48:43;;;;;;;13.28;9.10;;;;;;;4.39;70.51;101982.56;1610533;87;20978;-78
2021/10/01 05:51:09;;;;;;;11.63;8.88;;;;;;;4.51;70.54;101981.67;1641324;86;20965;-78
2021/10/01 05:56:10;;;;;;;16.25;9.55;;;;;;;4.91;70.73;101981.14;1636336;86;20932;-78
2021/10/01 05:58:37;;;;;;;16.40;9.60;;;;;;;5.19;70.86;101977.25;1644358;86;21893;-78
2021/10/01 06:01:04;;;;;;;14.80;8.00;;;;;;;5.52;71.05;101978.97;1637819;86;20918;-78
2021/10/01 06:03:30;;;;;;;14.05;9.15;;;;;;;5.85;71.05;101971.23;1600944;87;20988;-78
2021/10/01 06:06:02;;;;;;;9.20;8.08;;;;;;;6.21;70.99;101966.17;1633490;86;20901;-78
2021/10/01 06:08:29;;;;;;;10.65;8.45;;;;;;;6.57;71.07;101974.69;1642334;86;20936;-78
2021/10/01 06:10:57;;;;;;;15.03;9.38;;;;;;;6.91;71.08;101976.25;1637846;86;20977;-78
2021/10/01 06:13:24;;;;;;;10.43;8.28;;;;;;;7.28;71.09;101968.83;1635791;86;20902;-79
2021/10/01 06:15:50;;;;;;;15.70;8.83;;;;;;;7.63;71.11;101978.48;1639781;86;22001;-79
2021/10/01 06:18:17;;;;;;;12.03;9.15;;;;;;;7.97;71.06;101976.47;1601536;88;21255;-79
2021/10/01 06:20:43;;;;;;;10.73;8.23;;;;;;;8.32;71.01;101977.00;1601793;87;20926;-79
2021/10/01 06:23:09;;;;;;;9.27;7.97;;;;;;;8.65;71.08;101978.37;1643742;86;21558;-79
2021/10/01 06:25:35;;;;;;;11.22;8.73;;;;;;;8.98;71.04;101980.07;1636845;87;20921;-79
2021/10/01 06:28:01;;;;;;;12.27;8.17;;;;;;;9.27;71.03;101978.70;1636925;86;20964;-80
2021/10/01 06:30:28;;;;;;;15.17;8.37;;;;;;;9.56;70.99;101973.82;1630611;86;21343;-80
2021/10/01 06:32:54;;;;;;;14.40;8.53;;;;;;;9.86;70.99;101978.41;1628907;85;20970;-80
2021/10/01 06:35:20;;;;;;;10.65;8.55;;;;;;;10.12;70.83;101979.03;1634677;86;20983;-80
2021/10/01 06:37:46;;;;;;;11.90;8.20;;;;;;;10.35;70.93;101980.09;1635038;86;20917;-80
2021/10/01 06:40:13;;;;;;;10.55;7.37;;;;;;;10.63;70.96;101971.19;1627460;86;21413;-80
2021/10/01 06:42:42;;;;;;;9.47;8.07;;;;;;;10.93;70.95;101970.88;1623998;86;20982;-80
2021/10/01 06:45:08;;;;;;;8.78;7.58;;;;;;;11.28;71.01;101972.31;1627596;86;20982;-79
2021/10/01 06:47:56;;;;;;;9.75;7.47;;;;;;;11.66;70.92;101968.91;1632931;86;21751;-79
2021/10/01 06:50:33;;;;;;;7.55;5.97;;;;;;;11.99;70.89;101979.73;1638260;86;20965;-79
2021/10/01 08:19:52;;;;;;;6.35;4.35;;;;;;;16.58;68.50;101946.12;1609481;86;21374;-80
2021/10/01 08:22:19;;;;;;;8.18;4.75;;;;;;;16.82;68.86;101941.71;1634982;86;20909;-80
2021/10/01 08:24:45;;;;;;;8.25;4.55;;;;;;;17.24;69.17;101941.66;1636011;86;21453;-80
2021/10/01 08:27:12;;;;;;;8.65;4.50;;;;;;;17.79;69.13;101932.07;1636583;86;20955;-80
2021/10/01 08:29:38;;;;;;;10.03;4.70;;;;;;;18.35;68.56;101940.19;1631777;86;20989;-80
2021/10/01 08:32:06;;;;;;;10.23;4.20;;;;;;;18.28;67.49;101937.33;1627844;86;20934;-80
2021/10/01 08:34:37;;;;;;;6.92;4.55;;;;;;;17.63;67.25;101936.41;1640795;86;21463;-80
2021/10/01 08:37:04;;;;;;;6.53;4.10;;;;;;;17.32;67.37;101931.03;1634956;86;20958;-80
2021/10/01 08:39:31;;;;;;;6.37;3.67;;;;;;;17.03;67.15;101927.34;1607139;87;20985;-80
2021/10/01 08:41:57;;;;;;;7.95;3.85;;;;;;;16.80;66.96;101929.57;1633449;86;20941;-80
2021/10/01 08:44:30;;;;;;;8.83;4.12;;;;;;;16.61;66.85;101932.14;1597879;87;27923;-80
2021/10/01 08:46:59;;;;;;;6.28;3.47;;;;;;;16.45;66.82;101925.91;1620625;86;21076;-81
2021/10/01 08:49:27;;;;;;;6.87;3.00;;;;;;;16.33;66.50;101931.36;1636455;86;22557;-80
2021/10/01 08:51:53;;;;;;;6.78;3.72;;;;;;;16.17;66.32;101926.00;1635998;86;21446;-80
2021/10/01 08:54:20;;;;;;;4.72;3.10;;;;;;;16.06;66.26;101919.70;1613680;86;20927;-80
2021/10/01 08:56:46;;;;;;;4.23;2.87;;;;;;;15.99;66.01;101914.17;1603196;87;21527;-80
2021/10/01 08:59:18;;;;;;;9.58;2.60;;;;;;;15.84;65.88;101906.61;1632038;86;21580;-80
2021/10/01 09:01:44;;;;;;;8.10;3.10;;;;;;;15.79;65.70;101917.56;1565335;88;21211;-79
2021/10/01 09:04:13;;;;;;;6.58;2.98;;;;;;;15.73;65.66;101914.61;1632164;86;21107;-80
2021/10/01 09:06:45;;;;;;;5.42;2.50;;;;;;;15.70;65.57;101909.45;1630052;86;21113;-80
2021/10/01 09:09:10;;;;;;;4.83;2.72;;;;;;;15.72;65.37;101918.11;1629500;86;21113;-80
2021/10/01 09:11:45;;;;;;;6.97;2.30;;;;;;;15.71;65.15;101909.00;1636718;86;21009;-80
2021/10/01 09:14:12;;;;;;;4.75;2.30;;;;;;;15.68;65.09;101902.53;1624997;86;205201;-78
2021/10/01 09:16:40;;;;;;;6.70;2.47;;;;;;;15.66;64.90;101905.17;1627788;86;20988;-78
2021/10/01 09:19:08;;;;;;;6.45;2.50;;;;;;;15.66;64.81;101904.31;1611983;87;20970;-78
2021/10/01 09:21:50;;;;;;;3.00;2.35;;;;;;;15.67;64.70;101897.77;1643909;86;20978;-78
2021/10/01 09:24:26;;;;;;;8.78;2.08;;;;;;;15.69;64.53;101905.13;1641776;86;20989;-78
2021/10/01 09:26:57;;;;;;;4.13;2.40;;;;;;;15.71;64.38;101891.61;1634498;86;20893;-78
2021/10/01 09:29:34;;;;;;;4.95;2.10;;;;;;;15.75;64.27;101890.67;1636376;86;20933;-78
2021/10/01 09:32:15;;;;;;;4.12;2.00;;;;;;;15.79;64.26;101895.39;1635635;86;20918;-78
2021/10/01 09:34:44;;;;;;;4.30;1.62;;;;;;;15.86;64.14;101890.49;1569410;89;20989;-78
2021/10/01 09:37:15;;;;;;;4.53;1.87;;;;;;;15.92;63.90;101893.44;1602116;88;20988;-78
2021/10/01 09:39:47;;;;;;;5.45;1.98;;;;;;;15.95;63.86;101885.11;1605984;88;20984;-78
2021/10/01 09:42:33;;;;;;;5.95;1.90;;;;;;;15.99;63.66;101885.92;1569614;89;20941;-78
2021/10/01 09:45:05;;;;;;;3.33;1.80;;;;;;;16.03;63.61;101886.28;1576926;89;20949;-78
2021/10/01 09:47:36;;;;;;;2.22;1.32;;;;;;;16.08;63.51;101883.15;1572763;89;20905;-78
2021/10/01 09:50:14;;;;;;;5.15;1.45;;;;;;;16.12;63.37;101882.17;1562201;89;20969;-78
2021/10/01 09:52:47;;;;;;;6.12;1.40;;;;;;;16.19;63.28;101874.64;1602961;88;20945;-78
2021/10/01 09:55:25;;;;;;;7.10;1.60;;;;;;;16.22;62.93;101869.36;1610226;88;20970;-78
2021/10/01 09:58:13;;;;;;;4.72;1.42;;;;;;;16.23;62.85;101872.39;1572508;89;20990;-78
2021/10/01 10:00:52;;;;;;;5.03;1.50;;;;;;;16.22;62.82;101869.36;1566799;89;20981;-78
2021/10/01 10:03:29;;;;;;;2.12;1.00;;;;;;;16.26;62.73;101866.25;1549712;89;20944;-78
2021/10/01 10:06:06;;;;;;;;;;;;;;;16.30;62.66;101859.64;1576867;89;20988;-78
2021/10/01 10:08:41;;;;;;;2.02;1.15;;;;;;;16.35;61.76;101859.10;1602759;88;20098;-78
2021/10/01 10:11:14;;;;;;;2.25;0.98;;;;;;;16.40;62.29;101860.31;1604541;88;20940;-78
2021/10/01 10:13:47;;;;;;;;;;;;;;;16.42;62.31;101858.53;1574374;89;20977;-78
2021/10/01 10:16:20;;;;;;;0.78;0.70;;;;;;;16.42;61.41;101854.17;1588121;89;20164;-78
2021/10/01 10:18:52;;;;;;;2.20;1.00;;;;;;;16.43;61.98;101847.20;1599392;88;21082;-78
2021/10/01 10:21:19;;;;;;;3.50;1.00;;;;;;;16.46;61.92;101851.05;1602264;88;21056;-78
2021/10/01 10:23:46;;;;;;;3.60;0.78;;;;;;;16.52;61.80;101843.95;1550947;87;21136;-78
2021/10/01 10:26:13;;;;;;;1.37;1.05;;;;;;;16.58;61.70;101843.41;1570822;87;28541;-78
2021/10/01 10:28:41;;;;;;;2.30;1.00;;;;;;;16.62;61.58;101837.23;1602487;88;21155;-78
2021/10/01 10:31:08;;;;;;;3.77;1.02;;;;;;;16.63;61.40;101831.98;1600611;88;21150;-78
2021/10/01 10:33:46;;;;;;;;;;;;;;;16.65;61.23;101837.17;1627502;86;21070;-78
2021/10/01 10:36:41;;;;;;;2.98;1.00;;;;;;;16.64;60.48;101835.00;1635128;86;20203;-78
2021/10/01 10:39:19;;;;;;;5.60;1.77;;;;;;;16.64;60.97;101832.39;1636894;86;21128;-78
2021/10/01 10:41:48;;;;;;;2.67;0.80;;;;;;;16.64;60.88;101831.09;1603452;88;21080;-78
2021/10/01 10:44:16;;;;;;;1.20;0.72;;;;;;;16.67;60.76;101829.71;1605815;87;21148;-78
2021/10/01 10:46:47;;;;;;;3.25;1.00;;;;;;;16.70;60.66;101830.95;1596945;88;21118;-78
2021/10/01 10:49:22;;;;;;;3.35;0.85;;;;;;;16.69;60.46;101826.63;1577093;89;21555;-78
2021/10/01 10:52:14;;;;;;;1.40;0.82;;;;;;;16.69;60.30;101823.16;1638291;86;21128;-78
2021/10/01 10:54:54;;;;;;;1.30;0.70;;;;;;;16.69;60.09;101824.45;1630819;86;21635;-78
2021/10/01 10:57:28;;;;;;;1.27;0.80;;;;;;;16.72;60.01;101820.47;1630927;86;21084;-78
2021/10/01 10:59:59;;;;;;;3.35;0.80;;;;;;;16.73;60.00;101819.13;1628245;86;21068;-78
2021/10/01 11:02:33;;;;;;;2.60;0.62;;;;;;;16.75;59.83;101813.88;1630972;86;21082;-77
2021/10/01 11:05:26;;;;;;;2.27;0.70;;;;;;;16.78;59.75;101808.13;1601781;88;21139;-77
2021/10/01 11:08:02;;;;;;;5.80;0.85;;;;;;;16.83;59.63;101806.72;1646157;86;21163;-78
2021/10/01 11:10:47;;;;;;;1.75;0.75;;;;;;;16.87;59.45;101803.15;1634098;86;21144;-78
2021/10/01 11:13:24;;;;;;;3.15;0.57;;;;;;;16.92;59.34;101803.05;1639246;86;21103;-78
2021/10/01 11:16:17;;;;;;;3.47;1.00;;;;;;;16.93;59.15;101796.48;1638786;86;21406;-78
2021/10/01 11:19:00;;;;;;;2.60;0.75;;;;;;;16.95;58.88;101797.30;1639921;86;20965;-78
2021/10/01 11:21:33;;;;;;;3.02;0.88;;;;;;;16.94;58.76;101791.66;1638117;86;21024;-78
2021/10/01 11:24:17;;;;;;;4.08;0.88;;;;;;;16.96;58.73;101785.95;1630455;86;20912;-78
2021/10/01 11:26:55;;;;;;;4.75;0.98;;;;;;;17.00;58.53;101783.68;1640785;86;20974;-78
2021/10/01 11:29:29;;;;;;;2.17;0.82;;;;;;;17.06;58.51;101782.23;1576544;89;20995;-80
2021/10/01 11:32:18;;;;;;;1.30;0.90;;;;;;;17.08;58.31;101781.73;1634777;86;20917;-82
2021/10/01 11:34:52;;;;;;;2.02;1.12;;;;;;;17.10;58.21;101779.95;1663903;85;20899;-81
2021/10/01 11:37:39;;;;;;;2.00;0.70;;;;;;;17.12;58.19;101772.93;1638993;85;20896;-80
2021/10/01 11:40:23;;;;;;;3.55;1.02;;;;;;;17.15;57.92;101766.77;1624302;86;20960;-81
2021/10/01 11:42:52;;;;;;;1.45;0.90;;;;;;;17.15;57.78;101770.24;1629422;86;20952;-81
2021/10/01 11:45:33;;;;;;;1.00;0.70;;;;;;;17.14;57.69;101763.30;1620844;86;20908;-81
2021/10/01 11:48:12;;;;;;;2.25;1.00;;;;;;;17.18;57.74;101766.66;1626955;86;21171;-81
2021/10/01 11:50:43;;;;;;;1.62;0.68;;;;;;;17.25;57.71;101764.30;1639017;86;21137;-81
2021/10/01 11:53:20;;;;;;;1.75;0.90;;;;;;;17.32;57.52;101762.39;1615782;86;21155;-81
2021/10/01 11:56:01;;;;;;;;;;;;;;;17.34;57.45;101748.84;1629335;86;21021;-82
2021/10/01 11:58:31;;;;;;;4.42;0.95;;;;;;;17.36;56.74;101750.52;1645392;85;20247;-81
2021/10/01 12:01:17;;;;;;;2.10;0.65;;;;;;;17.41;57.11;101749.09;1656973;85;21090;-82
2021/10/01 12:03:55;;;;;;;2.90;1.10;;;;;;;17.42;57.09;101752.11;1644259;85;21333;-82
2021/10/01 12:06:35;;;;;;;1.07;0.93;;;;;;;17.41;56.99;101739.94;1658481;85;21090;-78
2021/10/01 12:09:07;;;;;;;1.70;0.70;;;;;;;17.39;56.88;101743.04;1647296;85;21091;-84
2021/10/01 12:11:39;;;;;;;2.55;0.90;;;;;;;17.39;56.73;101739.11;1648538;85;21115;-81
2021/10/01 12:14:20;;;;;;;0.98;0.55;;;;;;;17.39;56.68;101738.67;1653765;85;21000;-83
2021/10/01 12:17:05;;;;;;;1.80;0.80;;;;;;;17.41;56.53;101730.78;1624047;86;21059;-81
2021/10/01 12:19:33;;;;;;;3.40;0.60;;;;;;;17.45;56.47;101721.95;1623590;86;21081;-82
2021/10/01 12:22:16;;;;;;;1.42;0.75;;;;;;;17.44;56.20;101722.86;1621376;86;21119;-81
2021/10/01 12:24:53;;;;;;;2.27;0.80;;;;;;;17.41;56.20;101722.94;1621952;86;21113;-83
2021/10/01 12:27:42;;;;;;;1.00;0.70;;;;;;;17.41;56.14;101727.72;1610575;86;21166;-80
2021/10/01 12:30:08;;;;;;;1.10;0.70;;;;;;;17.41;55.99;101715.95;1630834;86;20962;-81
2021/10/01 12:32:37;;;;;;;1.45;0.88;;;;;;;17.39;55.83;101711.66;1597000;88;21024;-81
2021/10/01 12:35:06;;;;;;;2.17;0.68;;;;;;;17.36;55.73;101711.30;1566814;89;20953;-81
2021/10/01 12:37:40;;;;;;;4.35;0.65;;;;;;;17.36;55.65;101711.74;1631900;86;21470;-81
2021/10/01 12:40:09;;;;;;;5.15;0.80;;;;;;;17.31;55.54;101701.41;1638628;86;20931;-81
2021/10/01 12:42:38;;;;;;;3.72;0.68;;;;;;;17.30;55.40;101693.60;1633250;86;20937;-82
2021/10/01 12:45:12;;;;;;;1.30;0.62;;;;;;;17.29;55.41;101701.03;1618292;86;20933;-81
2021/10/01 12:47:43;;;;;;;1.90;0.60;;;;;;;17.28;55.25;101687.55;1633337;86;21001;-81
2021/10/01 12:50:22;;;;;;;2.50;0.60;;;;;;;17.25;55.05;101687.19;1631255;86;20973;-81
2021/10/01 12:52:58;;;;;;;3.33;0.85;;;;;;;17.25;54.77;101678.48;1625897;86;20914;-82
2021/10/01 12:55:24;;;;;;;1.73;0.80;;;;;;;17.23;54.95;101677.67;1636417;86;20933;-81
2021/10/01 12:57:53;;;;;;;2.80;0.60;;;;;;;17.21;54.89;101679.88;1633157;86;20893;-81
2021/10/01 13:00:26;;;;;;;2.90;0.80;;;;;;;17.23;54.82;101672.44;1633890;86;20934;-82
2021/10/01 13:03:02;;;;;;;2.67;0.70;;;;;;;17.23;54.66;101664.16;1641414;86;20933;-82
2021/10/01 13:05:41;;;;;;;3.10;0.65;;;;;;;17.24;54.60;101664.56;1628086;86;20945;-79
2021/10/01 13:08:15;;;;;;;2.90;0.82;;;;;;;17.23;54.53;101662.84;1632531;86;20977;-79
2021/10/01 13:11:00;;;;;;;4.47;0.72;;;;;;;17.24;54.46;101659.78;1638121;86;21529;-83
2021/10/01 13:13:36;;;;;;;1.15;0.68;;;;;;;17.23;54.36;101665.45;1636728;86;20970;-83